PWSweather.com
Personal Weather Stations
Station Observations
BC052CD
On, Kemptville, ON K0G 1J0

OnKemptville, ON K0G 1J0

Lat: 45.0173179, Lon: -75.6329355

Elevation: 295

Station Type: National Geographic 265NC

http://kerrentweather.ca

High Low Average
Temperature 82.0°F27.8°C 39.7°F4.3°C 62.5°F16.9°C
Dew Point 48.9°F9.4°C 25.5°F-3.6°C 36.1°F2.3°C
Winds 5.6 mph 9.0 kmh Calm Calm 1.0 mph S1.6 kmh S
Wind Gusts 18.2 mph29.3 kmh -- 6.0 mph9.7 kmh
Humidity 83% 17% 45%
Pressure 30.27 in1025.1 mb 29.99 in1015.6 mb -
Precipitation 0.00 in0.0 mm - -
Hour Temp Dew Point Humidity Winds Wind Gusts Pressure Precip Precip Rate Daily Precip Total
12:00 AM 51.4°F10.8°C 32.9°F0.5°C 49% Calm Calm 2.0 mph3.2 kmh 30.15 in1021.0 mb 0.00 in0.0 mm 0.00 in0.0 mm 0.00 in0.0 mm
12:15 AM 50.5°F10.3°C 34.1°F1.2°C 53% Calm Calm -- 30.16 in1021.3 mb 0.00 in0.0 mm 0.00 in0.0 mm 0.00 in0.0 mm
12:30 AM 49.5°F9.7°C 34.9°F1.6°C 57% Calm Calm 0.8 mph1.3 kmh 30.16 in1021.3 mb 0.00 in0.0 mm 0.00 in0.0 mm 0.00 in0.0 mm
12:45 AM 48.4°F9.1°C 34.7°F1.5°C 59% Calm Calm -- 30.16 in1021.3 mb 0.00 in0.0 mm 0.00 in0.0 mm 0.00 in0.0 mm
01:00 AM 47.1°F8.4°C 34.0°F1.1°C 60% Calm Calm -- 30.17 in1021.7 mb 0.00 in0.0 mm 0.00 in0.0 mm 0.00 in0.0 mm
01:15 AM 46.4°F8.0°C 34.5°F1.4°C 63% Calm Calm -- 30.17 in1021.7 mb 0.00 in0.0 mm 0.00 in0.0 mm 0.00 in0.0 mm
01:30 AM 45.5°F7.5°C 34.4°F1.3°C 65% Calm Calm -- 30.17 in1021.7 mb 0.00 in0.0 mm 0.00 in0.0 mm 0.00 in0.0 mm
01:45 AM 44.8°F7.1°C 34.5°F1.4°C 67% Calm Calm -- 30.17 in1021.7 mb 0.00 in0.0 mm 0.00 in0.0 mm 0.00 in0.0 mm
02:00 AM 44.1°F6.7°C 34.2°F1.2°C 68% Calm Calm -- 30.17 in1021.7 mb 0.00 in0.0 mm 0.00 in0.0 mm 0.00 in0.0 mm
02:15 AM 43.7°F6.5°C 34.6°F1.4°C 70% 0.8 mph WNW1.3 kmh WNW 2.0 mph3.2 kmh 30.17 in1021.7 mb 0.00 in0.0 mm 0.00 in0.0 mm 0.00 in0.0 mm
02:30 AM 43.3°F6.3°C 34.9°F1.6°C 72% Calm Calm 0.8 mph1.3 kmh 30.17 in1021.7 mb 0.00 in0.0 mm 0.00 in0.0 mm 0.00 in0.0 mm
02:45 AM 43.0°F6.1°C 34.6°F1.4°C 72% Calm Calm 2.0 mph3.2 kmh 30.18 in1022.0 mb 0.00 in0.0 mm 0.00 in0.0 mm 0.00 in0.0 mm
03:00 AM 42.4°F5.8°C 34.4°F1.3°C 73% 0.8 mph WNW1.3 kmh WNW 2.0 mph3.2 kmh 30.18 in1022.0 mb 0.00 in0.0 mm 0.00 in0.0 mm 0.00 in0.0 mm
03:15 AM 42.1°F5.6°C 34.4°F1.3°C 74% Calm Calm 2.0 mph3.2 kmh 30.18 in1022.0 mb 0.00 in0.0 mm 0.00 in0.0 mm 0.00 in0.0 mm
03:30 AM 41.9°F5.5°C 34.2°F1.2°C 74% Calm Calm 2.0 mph3.2 kmh 30.18 in1022.0 mb 0.00 in0.0 mm 0.00 in0.0 mm 0.00 in0.0 mm
03:45 AM 41.4°F5.2°C 34.0°F1.1°C 75% Calm Calm 0.8 mph1.3 kmh 30.18 in1022.0 mb 0.00 in0.0 mm 0.00 in0.0 mm 0.00 in0.0 mm
04:00 AM 41.2°F5.1°C 34.2°F1.2°C 76% Calm Calm 2.0 mph3.2 kmh 30.18 in1022.0 mb 0.00 in0.0 mm 0.00 in0.0 mm 0.00 in0.0 mm
04:15 AM 41.2°F5.1°C 34.5°F1.4°C 77% Calm Calm 2.0 mph3.2 kmh 30.19 in1022.4 mb 0.00 in0.0 mm 0.00 in0.0 mm 0.00 in0.0 mm
04:30 AM 40.8°F4.9°C 34.2°F1.2°C 77% Calm Calm 2.0 mph3.2 kmh 30.20 in1022.7 mb 0.00 in0.0 mm 0.00 in0.0 mm 0.00 in0.0 mm
04:45 AM 40.1°F4.5°C 33.8°F1.0°C 78% Calm Calm 2.0 mph3.2 kmh 30.21 in1023.0 mb 0.00 in0.0 mm 0.00 in0.0 mm 0.00 in0.0 mm
05:00 AM 39.7°F4.3°C 33.8°F1.0°C 79% Calm Calm -- 30.21 in1023.0 mb 0.00 in0.0 mm 0.00 in0.0 mm 0.00 in0.0 mm
05:15 AM 40.6°F4.8°C 35.3°F1.8°C 81% Calm Calm 0.8 mph1.3 kmh 30.22 in1023.4 mb 0.00 in0.0 mm 0.00 in0.0 mm 0.00 in0.0 mm
05:30 AM 41.5°F5.3°C 36.5°F2.5°C 82% Calm Calm 0.8 mph1.3 kmh 30.23 in1023.7 mb 0.00 in0.0 mm 0.00 in0.0 mm 0.00 in0.0 mm
05:45 AM 41.9°F5.5°C 37.1°F2.8°C 83% Calm Calm 0.8 mph1.3 kmh 30.23 in1023.7 mb 0.00 in0.0 mm 0.00 in0.0 mm 0.00 in0.0 mm
06:00 AM 42.3°F5.7°C 37.5°F3.1°C 83% Calm Calm 2.0 mph3.2 kmh 30.24 in1024.0 mb 0.00 in0.0 mm 0.00 in0.0 mm 0.00 in0.0 mm
06:15 AM 42.6°F5.9°C 37.5°F3.1°C 82% Calm Calm 2.0 mph3.2 kmh 30.24 in1024.0 mb 0.00 in0.0 mm 0.00 in0.0 mm 0.00 in0.0 mm
06:30 AM 43.2°F6.2°C 38.0°F3.3°C 82% Calm Calm 2.0 mph3.2 kmh 30.25 in1024.4 mb 0.00 in0.0 mm 0.00 in0.0 mm 0.00 in0.0 mm
06:45 AM 44.4°F6.9°C 39.6°F4.2°C 83% Calm Calm 0.8 mph1.3 kmh 30.25 in1024.4 mb 0.00 in0.0 mm 0.00 in0.0 mm 0.00 in0.0 mm
07:00 AM 45.7°F7.6°C 40.5°F4.7°C 82% Calm Calm -- 30.25 in1024.4 mb 0.00 in0.0 mm 0.00 in0.0 mm 0.00 in0.0 mm
07:15 AM 47.1°F8.4°C 41.9°F5.5°C 82% Calm Calm 2.0 mph3.2 kmh 30.25 in1024.4 mb 0.00 in0.0 mm 0.00 in0.0 mm 0.00 in0.0 mm
07:30 AM 48.7°F9.3°C 41.9°F5.5°C 77% 0.8 mph WNW1.3 kmh WNW 2.0 mph3.2 kmh 30.26 in1024.7 mb 0.00 in0.0 mm 0.00 in0.0 mm 0.00 in0.0 mm
07:45 AM 50.4°F10.2°C 42.0°F5.6°C 73% Calm Calm 2.0 mph3.2 kmh 30.26 in1024.7 mb 0.00 in0.0 mm 0.00 in0.0 mm 0.00 in0.0 mm
08:00 AM 51.8°F11.0°C 41.6°F5.3°C 68% Calm Calm 2.8 mph4.5 kmh 30.27 in1025.1 mb 0.00 in0.0 mm 0.00 in0.0 mm 0.00 in0.0 mm
08:15 AM 53.1°F11.7°C 41.2°F5.1°C 64% 0.8 mph WNW1.3 kmh WNW 3.9 mph6.3 kmh 30.27 in1025.1 mb 0.00 in0.0 mm 0.00 in0.0 mm 0.00 in0.0 mm
08:30 AM 54.0°F12.2°C 40.4°F4.7°C 60% Calm Calm 2.8 mph4.5 kmh 30.27 in1025.1 mb 0.00 in0.0 mm 0.00 in0.0 mm 0.00 in0.0 mm
08:45 AM 57.0°F13.9°C 42.4°F5.8°C 58% 2.0 mph WNW3.2 kmh WNW 4.8 mph7.7 kmh 30.27 in1025.1 mb 0.00 in0.0 mm 0.00 in0.0 mm 0.00 in0.0 mm
09:00 AM 59.9°F15.5°C 41.7°F5.4°C 51% 0.8 mph WNW1.3 kmh WNW 2.8 mph4.5 kmh 30.26 in1024.7 mb 0.00 in0.0 mm 0.00 in0.0 mm 0.00 in0.0 mm
09:15 AM 62.1°F16.7°C 41.6°F5.3°C 47% 0.8 mph WNW1.3 kmh WNW 4.8 mph7.7 kmh 30.26 in1024.7 mb 0.00 in0.0 mm 0.00 in0.0 mm 0.00 in0.0 mm
09:30 AM 63.3°F17.4°C 37.3°F2.9°C 38% 0.8 mph WNW1.3 kmh WNW 2.8 mph4.5 kmh 30.26 in1024.7 mb 0.00 in0.0 mm 0.00 in0.0 mm 0.00 in0.0 mm
09:45 AM 63.3°F17.4°C 35.2°F1.8°C 35% 0.8 mph WNW1.3 kmh WNW 3.9 mph6.3 kmh 30.26 in1024.7 mb 0.00 in0.0 mm 0.00 in0.0 mm 0.00 in0.0 mm
10:00 AM 64.8°F18.2°C 33.4°F0.8°C 31% 0.8 mph WNW1.3 kmh WNW 4.8 mph7.7 kmh 30.26 in1024.7 mb 0.00 in0.0 mm 0.00 in0.0 mm 0.00 in0.0 mm
10:15 AM 66.2°F19.0°C 35.5°F1.9°C 32% 0.8 mph WNW1.3 kmh WNW 4.8 mph7.7 kmh 30.25 in1024.4 mb 0.00 in0.0 mm 0.00 in0.0 mm 0.00 in0.0 mm
10:30 AM 68.0°F20.0°C 31.9°F-0.1°C 26% 2.0 mph WNW3.2 kmh WNW 8.7 mph14.0 kmh 30.24 in1024.0 mb 0.00 in0.0 mm 0.00 in0.0 mm 0.00 in0.0 mm
10:45 AM 69.1°F20.6°C 29.8°F-1.2°C 23% Calm Calm 5.6 mph9.0 kmh 30.24 in1024.0 mb 0.00 in0.0 mm 0.00 in0.0 mm 0.00 in0.0 mm
11:00 AM 70.7°F21.5°C 31.1°F-0.5°C 23% 2.0 mph WNW3.2 kmh WNW 5.6 mph9.0 kmh 30.24 in1024.0 mb 0.00 in0.0 mm 0.00 in0.0 mm 0.00 in0.0 mm
11:15 AM 71.6°F22.0°C 27.2°F-2.7°C 19% 0.8 mph WNW1.3 kmh WNW 6.7 mph10.8 kmh 30.23 in1023.7 mb 0.00 in0.0 mm 0.00 in0.0 mm 0.00 in0.0 mm
11:30 AM 72.1°F22.3°C 27.6°F-2.4°C 19% 2.0 mph WNW3.2 kmh WNW 7.5 mph12.1 kmh 30.23 in1023.7 mb 0.00 in0.0 mm 0.00 in0.0 mm 0.00 in0.0 mm
11:45 AM 73.2°F22.9°C 25.8°F-3.4°C 17% 5.6 mph WNW9.0 kmh WNW 10.3 mph16.6 kmh 30.23 in1023.7 mb 0.00 in0.0 mm 0.00 in0.0 mm 0.00 in0.0 mm
12:00 PM 72.9°F22.7°C 25.5°F-3.6°C 17% 0.8 mph WNW1.3 kmh WNW 8.7 mph14.0 kmh 30.22 in1023.4 mb 0.00 in0.0 mm 0.00 in0.0 mm 0.00 in0.0 mm
12:15 PM 73.8°F23.2°C 27.7°F-2.4°C 18% 3.9 mph WNW6.3 kmh WNW 7.5 mph12.1 kmh 30.21 in1023.0 mb 0.00 in0.0 mm 0.00 in0.0 mm 0.00 in0.0 mm
12:30 PM 74.7°F23.7°C 28.4°F-2.0°C 18% 2.0 mph WNW3.2 kmh WNW 7.5 mph12.1 kmh 30.21 in1023.0 mb 0.00 in0.0 mm 0.00 in0.0 mm 0.00 in0.0 mm
12:45 PM 75.4°F24.1°C 27.6°F-2.4°C 17% 2.8 mph WNW4.5 kmh WNW 10.3 mph16.6 kmh 30.20 in1022.7 mb 0.00 in0.0 mm 0.00 in0.0 mm 0.00 in0.0 mm
01:00 PM 75.9°F24.4°C 28.0°F-2.2°C 17% 0.8 mph WNW1.3 kmh WNW 5.6 mph9.0 kmh 30.19 in1022.4 mb 0.00 in0.0 mm 0.00 in0.0 mm 0.00 in0.0 mm
01:15 PM 76.6°F24.8°C 28.6°F-1.9°C 17% 2.8 mph WNW4.5 kmh WNW 9.5 mph15.3 kmh 30.19 in1022.4 mb 0.00 in0.0 mm 0.00 in0.0 mm 0.00 in0.0 mm
01:30 PM 77.2°F25.1°C 29.0°F-1.7°C 17% Calm Calm 6.7 mph10.8 kmh 30.18 in1022.0 mb 0.00 in0.0 mm 0.00 in0.0 mm 0.00 in0.0 mm
01:45 PM 77.7°F25.4°C 29.5°F-1.4°C 17% 2.8 mph WNW4.5 kmh WNW 9.5 mph15.3 kmh 30.17 in1021.7 mb 0.00 in0.0 mm 0.00 in0.0 mm 0.00 in0.0 mm
02:00 PM 78.6°F25.9°C 30.2°F-1.0°C 17% 2.8 mph WNW4.5 kmh WNW 7.5 mph12.1 kmh 30.16 in1021.3 mb 0.00 in0.0 mm 0.00 in0.0 mm 0.00 in0.0 mm
02:15 PM 78.6°F25.9°C 30.2°F-1.0°C 17% 0.8 mph WNW1.3 kmh WNW 9.5 mph15.3 kmh 30.15 in1021.0 mb 0.00 in0.0 mm 0.00 in0.0 mm 0.00 in0.0 mm
02:30 PM 79.5°F26.4°C 30.9°F-0.6°C 17% 2.8 mph WNW4.5 kmh WNW 8.7 mph14.0 kmh 30.15 in1021.0 mb 0.00 in0.0 mm 0.00 in0.0 mm 0.00 in0.0 mm
02:45 PM 79.7°F26.5°C 31.1°F-0.5°C 17% 2.0 mph WNW3.2 kmh WNW 9.5 mph15.3 kmh 30.14 in1020.7 mb 0.00 in0.0 mm 0.00 in0.0 mm 0.00 in0.0 mm
03:00 PM 78.3°F25.7°C 29.9°F-1.2°C 17% 3.9 mph WNW6.3 kmh WNW 12.3 mph19.8 kmh 30.14 in1020.7 mb 0.00 in0.0 mm 0.00 in0.0 mm 0.00 in0.0 mm
03:15 PM 80.1°F26.7°C 31.4°F-0.3°C 17% 2.0 mph WNW3.2 kmh WNW 8.7 mph14.0 kmh 30.13 in1020.3 mb 0.00 in0.0 mm 0.00 in0.0 mm 0.00 in0.0 mm
03:30 PM 80.4°F26.9°C 31.7°F-0.2°C 17% 4.8 mph WNW7.7 kmh WNW 12.3 mph19.8 kmh 30.12 in1020.0 mb 0.00 in0.0 mm 0.00 in0.0 mm 0.00 in0.0 mm
03:45 PM 80.6°F27.0°C 31.8°F-0.1°C 17% 0.8 mph WNW1.3 kmh WNW 10.3 mph16.6 kmh 30.12 in1020.0 mb 0.00 in0.0 mm 0.00 in0.0 mm 0.00 in0.0 mm
04:00 PM 81.1°F27.3°C 32.2°F0.1°C 17% 3.9 mph WNW6.3 kmh WNW 8.7 mph14.0 kmh 30.11 in1019.6 mb 0.00 in0.0 mm 0.00 in0.0 mm 0.00 in0.0 mm
04:15 PM 81.5°F27.5°C 32.5°F0.3°C 17% 2.8 mph WNW4.5 kmh WNW 10.3 mph16.6 kmh 30.11 in1019.6 mb 0.00 in0.0 mm 0.00 in0.0 mm 0.00 in0.0 mm
04:30 PM 81.9°F27.7°C 32.8°F0.4°C 17% 4.8 mph WNW7.7 kmh WNW 9.5 mph15.3 kmh 30.09 in1019.0 mb 0.00 in0.0 mm 0.00 in0.0 mm 0.00 in0.0 mm
04:45 PM 82.0°F27.8°C 33.0°F0.6°C 17% 2.0 mph WNW3.2 kmh WNW 7.5 mph12.1 kmh 30.09 in1019.0 mb 0.00 in0.0 mm 0.00 in0.0 mm 0.00 in0.0 mm
05:00 PM 81.9°F27.7°C 32.8°F0.4°C 17% 2.8 mph WNW4.5 kmh WNW 9.5 mph15.3 kmh 30.08 in1018.6 mb 0.00 in0.0 mm 0.00 in0.0 mm 0.00 in0.0 mm
05:15 PM 80.2°F26.8°C 31.5°F-0.3°C 17% 2.0 mph WNW3.2 kmh WNW 18.2 mph29.3 kmh 30.07 in1018.3 mb 0.00 in0.0 mm 0.00 in0.0 mm 0.00 in0.0 mm
05:30 PM 79.5°F26.4°C 32.3°F0.2°C 18% 2.0 mph WNW3.2 kmh WNW 12.3 mph19.8 kmh 30.07 in1018.3 mb 0.00 in0.0 mm 0.00 in0.0 mm 0.00 in0.0 mm
05:45 PM 78.6°F25.9°C 30.2°F-1.0°C 17% 3.9 mph WNW6.3 kmh WNW 14.3 mph23.0 kmh 30.07 in1018.3 mb 0.00 in0.0 mm 0.00 in0.0 mm 0.00 in0.0 mm
06:00 PM 77.5°F25.3°C 30.7°F-0.7°C 18% 3.9 mph WNW6.3 kmh WNW 14.3 mph23.0 kmh 30.06 in1017.9 mb 0.00 in0.0 mm 0.00 in0.0 mm 0.00 in0.0 mm
06:15 PM 76.6°F24.8°C 33.8°F1.0°C 21% 2.0 mph WNW3.2 kmh WNW 10.3 mph16.6 kmh 30.05 in1017.6 mb 0.00 in0.0 mm 0.00 in0.0 mm 0.00 in0.0 mm
06:30 PM 75.7°F24.3°C 35.3°F1.8°C 23% 2.8 mph WNW4.5 kmh WNW 8.7 mph14.0 kmh 30.05 in1017.6 mb 0.00 in0.0 mm 0.00 in0.0 mm 0.00 in0.0 mm
06:45 PM 75.4°F24.1°C 37.1°F2.8°C 25% 4.8 mph WNW7.7 kmh WNW 9.5 mph15.3 kmh 30.05 in1017.6 mb 0.00 in0.0 mm 0.00 in0.0 mm 0.00 in0.0 mm
07:00 PM 74.5°F23.6°C 34.3°F1.3°C 23% 2.8 mph WNW4.5 kmh WNW 9.5 mph15.3 kmh 30.04 in1017.3 mb 0.00 in0.0 mm 0.00 in0.0 mm 0.00 in0.0 mm
07:15 PM 73.2°F22.9°C 35.3°F1.8°C 25% 3.9 mph WNW6.3 kmh WNW 7.5 mph12.1 kmh 30.03 in1016.9 mb 0.00 in0.0 mm 0.00 in0.0 mm 0.00 in0.0 mm
07:30 PM 72.9°F22.7°C 37.0°F2.8°C 27% 2.8 mph WNW4.5 kmh WNW 5.6 mph9.0 kmh 30.03 in1016.9 mb 0.00 in0.0 mm 0.00 in0.0 mm 0.00 in0.0 mm
07:45 PM 71.8°F22.1°C 37.8°F3.2°C 29% 2.0 mph WNW3.2 kmh WNW 8.7 mph14.0 kmh 30.03 in1016.9 mb 0.00 in0.0 mm 0.00 in0.0 mm 0.00 in0.0 mm
08:00 PM 70.9°F21.6°C 38.8°F3.8°C 31% 0.8 mph WNW1.3 kmh WNW 8.7 mph14.0 kmh 30.03 in1016.9 mb 0.00 in0.0 mm 0.00 in0.0 mm 0.00 in0.0 mm
08:15 PM 69.6°F20.9°C 38.5°F3.6°C 32% 2.0 mph WNW3.2 kmh WNW 8.7 mph14.0 kmh 30.02 in1016.6 mb 0.00 in0.0 mm 0.00 in0.0 mm 0.00 in0.0 mm
08:30 PM 68.5°F20.3°C 39.8°F4.3°C 35% 2.0 mph WNW3.2 kmh WNW 7.5 mph12.1 kmh 30.02 in1016.6 mb 0.00 in0.0 mm 0.00 in0.0 mm 0.00 in0.0 mm
08:45 PM 67.6°F19.8°C 39.8°F4.3°C 36% 2.8 mph WNW4.5 kmh WNW 12.3 mph19.8 kmh 30.01 in1016.3 mb 0.00 in0.0 mm 0.00 in0.0 mm 0.00 in0.0 mm
09:00 PM 66.9°F19.4°C 40.5°F4.7°C 38% 2.0 mph WNW3.2 kmh WNW 7.5 mph12.1 kmh 30.01 in1016.3 mb 0.00 in0.0 mm 0.00 in0.0 mm 0.00 in0.0 mm
09:15 PM 65.8°F18.8°C 41.5°F5.3°C 41% 0.8 mph WNW1.3 kmh WNW 6.7 mph10.8 kmh 30.01 in1016.3 mb 0.00 in0.0 mm 0.00 in0.0 mm 0.00 in0.0 mm
09:30 PM 64.8°F18.2°C 42.4°F5.8°C 44% 0.8 mph WNW1.3 kmh WNW 6.7 mph10.8 kmh 30.01 in1016.3 mb 0.00 in0.0 mm 0.00 in0.0 mm 0.00 in0.0 mm
09:45 PM 64.2°F17.9°C 43.0°F6.1°C 46% 0.8 mph WNW1.3 kmh WNW 9.5 mph15.3 kmh 30.02 in1016.6 mb 0.00 in0.0 mm 0.00 in0.0 mm 0.00 in0.0 mm
10:00 PM 63.9°F17.7°C 43.8°F6.6°C 48% 2.8 mph WNW4.5 kmh WNW 5.6 mph9.0 kmh 30.02 in1016.6 mb 0.00 in0.0 mm 0.00 in0.0 mm 0.00 in0.0 mm
10:15 PM 63.3°F17.4°C 44.4°F6.9°C 50% 2.8 mph WNW4.5 kmh WNW 5.6 mph9.0 kmh 30.02 in1016.6 mb 0.00 in0.0 mm 0.00 in0.0 mm 0.00 in0.0 mm
10:30 PM 62.8°F17.1°C 45.4°F7.4°C 53% 0.8 mph WNW1.3 kmh WNW 5.6 mph9.0 kmh 30.01 in1016.3 mb 0.00 in0.0 mm 0.00 in0.0 mm 0.00 in0.0 mm
10:45 PM 62.2°F16.8°C 45.9°F7.7°C 55% 2.0 mph WNW3.2 kmh WNW 4.8 mph7.7 kmh 30.01 in1016.3 mb 0.00 in0.0 mm 0.00 in0.0 mm 0.00 in0.0 mm
11:00 PM 61.9°F16.6°C 46.0°F7.8°C 56% 2.0 mph WNW3.2 kmh WNW 6.7 mph10.8 kmh 30.00 in1015.9 mb 0.00 in0.0 mm 0.00 in0.0 mm 0.00 in0.0 mm
11:15 PM 61.7°F16.5°C 46.3°F7.9°C 57% 0.8 mph WNW1.3 kmh WNW 4.8 mph7.7 kmh 30.00 in1015.9 mb 0.00 in0.0 mm 0.00 in0.0 mm 0.00 in0.0 mm
11:30 PM 61.5°F16.4°C 46.6°F8.1°C 58% 0.8 mph WNW1.3 kmh WNW 5.6 mph9.0 kmh 30.00 in1015.9 mb 0.00 in0.0 mm 0.00 in0.0 mm 0.00 in0.0 mm
11:45 PM 60.8°F16.0°C 46.8°F8.2°C 60% Calm Calm 2.8 mph4.5 kmh 30.00 in1015.9 mb 0.00 in0.0 mm 0.00 in0.0 mm 0.00 in0.0 mm